Terminal Aerodrome Forecast
Issued by NWS Twin Cities, MN

Home | Current Version | Previous Version | Text Only | Print | Product List | Glossary On
Versions: 1 2 3 4 5 6 7 8 9 10 11 12 13
000
FTUS43 KMPX 142329
TAFEAU
TAF
KEAU 142329Z 1500/1524 15009KT 1 1/2SM -SN BR VV008
      TEMPO 1501/1505 3/4SM -SN BR
     FM150700 34007KT 2SM -SN BR BKN015 OVC030=

USA.gov is the U.S. government's official web portal to all federal, state and local government web resources and services.